sensor_id;sensor_type;location;lat;lon;timestamp;P1;durP1;ratioP1;P2;durP2;ratioP2
19167;SDS011;9716;53.114;18.040;2022-08-21T00:00:51;4.72;;;2.65;;
19167;SDS011;9716;53.114;18.040;2022-08-21T00:03:21;8.23;;;3.63;;
19167;SDS011;9716;53.114;18.040;2022-08-21T00:05:50;3.83;;;2.80;;
19167;SDS011;9716;53.114;18.040;2022-08-21T00:08:18;9.63;;;3.22;;
19167;SDS011;9716;53.114;18.040;2022-08-21T00:10:47;4.80;;;3.00;;
19167;SDS011;9716;53.114;18.040;2022-08-21T00:13:17;10.80;;;3.25;;
19167;SDS011;9716;53.114;18.040;2022-08-21T00:15:47;4.45;;;3.22;;
19167;SDS011;9716;53.114;18.040;2022-08-21T00:18:17;5.90;;;3.05;;
19167;SDS011;9716;53.114;18.040;2022-08-21T00:20:47;4.70;;;2.95;;
19167;SDS011;9716;53.114;18.040;2022-08-21T00:23:16;7.90;;;3.22;;
19167;SDS011;9716;53.114;18.040;2022-08-21T00:25:45;8.68;;;3.40;;
19167;SDS011;9716;53.114;18.040;2022-08-21T00:28:14;6.35;;;3.47;;
19167;SDS011;9716;53.114;18.040;2022-08-21T00:30:43;9.43;;;3.53;;
19167;SDS011;9716;53.114;18.040;2022-08-21T00:33:14;12.13;;;3.08;;
19167;SDS011;9716;53.114;18.040;2022-08-21T00:35:43;7.13;;;3.67;;
19167;SDS011;9716;53.114;18.040;2022-08-21T00:38:13;7.03;;;2.88;;
19167;SDS011;9716;53.114;18.040;2022-08-21T00:40:43;5.65;;;3.47;;
19167;SDS011;9716;53.114;18.040;2022-08-21T00:43:14;4.75;;;3.55;;
19167;SDS011;9716;53.114;18.040;2022-08-21T00:45:48;5.68;;;3.72;;
19167;SDS011;9716;53.114;18.040;2022-08-21T00:48:17;4.63;;;3.08;;
19167;SDS011;9716;53.114;18.040;2022-08-21T00:50:46;9.13;;;3.83;;
19167;SDS011;9716;53.114;18.040;2022-08-21T00:53:21;8.50;;;3.42;;
19167;SDS011;9716;53.114;18.040;2022-08-21T00:55:51;6.18;;;3.28;;
19167;SDS011;9716;53.114;18.040;2022-08-21T00:58:22;5.70;;;3.25;;
19167;SDS011;9716;53.114;18.040;2022-08-21T01:00:51;10.18;;;3.40;;
19167;SDS011;9716;53.114;18.040;2022-08-21T01:03:22;3.65;;;3.05;;
19167;SDS011;9716;53.114;18.040;2022-08-21T01:05:52;6.97;;;3.17;;
19167;SDS011;9716;53.114;18.040;2022-08-21T01:08:23;5.55;;;3.10;;
19167;SDS011;9716;53.114;18.040;2022-08-21T01:10:53;4.25;;;2.97;;
19167;SDS011;9716;53.114;18.040;2022-08-21T01:13:22;5.75;;;3.17;;
19167;SDS011;9716;53.114;18.040;2022-08-21T01:15:52;3.97;;;2.53;;
19167;SDS011;9716;53.114;18.040;2022-08-21T01:18:24;4.63;;;2.55;;
19167;SDS011;9716;53.114;18.040;2022-08-21T01:21:05;6.43;;;3.22;;
19167;SDS011;9716;53.114;18.040;2022-08-21T01:23:39;5.35;;;3.42;;
19167;SDS011;9716;53.114;18.040;2022-08-21T01:26:09;11.25;;;2.88;;
19167;SDS011;9716;53.114;18.040;2022-08-21T01:28:38;6.15;;;3.70;;
19167;SDS011;9716;53.114;18.040;2022-08-21T01:31:12;4.18;;;2.78;;
19167;SDS011;9716;53.114;18.040;2022-08-21T01:33:49;4.65;;;3.13;;
19167;SDS011;9716;53.114;18.040;2022-08-21T01:36:20;7.63;;;2.95;;
19167;SDS011;9716;53.114;18.040;2022-08-21T01:38:48;12.07;;;3.13;;
19167;SDS011;9716;53.114;18.040;2022-08-21T01:41:17;6.53;;;3.03;;
19167;SDS011;9716;53.114;18.040;2022-08-21T01:43:46;7.03;;;3.30;;
19167;SDS011;9716;53.114;18.040;2022-08-21T01:46:14;5.07;;;3.03;;
19167;SDS011;9716;53.114;18.040;2022-08-21T01:48:43;5.07;;;3.28;;
19167;SDS011;9716;53.114;18.040;2022-08-21T01:51:12;6.68;;;3.85;;
19167;SDS011;9716;53.114;18.040;2022-08-21T01:53:42;4.60;;;3.10;;
19167;SDS011;9716;53.114;18.040;2022-08-21T01:56:11;4.97;;;2.85;;
19167;SDS011;9716;53.114;18.040;2022-08-21T01:58:42;9.95;;;2.72;;
19167;SDS011;9716;53.114;18.040;2022-08-21T02:01:12;8.82;;;3.13;;
19167;SDS011;9716;53.114;18.040;2022-08-21T02:03:42;7.03;;;4.13;;
19167;SDS011;9716;53.114;18.040;2022-08-21T02:06:12;6.10;;;3.00;;
19167;SDS011;9716;53.114;18.040;2022-08-21T02:08:45;10.32;;;3.95;;
19167;SDS011;9716;53.114;18.040;2022-08-21T02:11:14;9.15;;;3.53;;
19167;SDS011;9716;53.114;18.040;2022-08-21T02:13:42;6.90;;;3.75;;
19167;SDS011;9716;53.114;18.040;2022-08-21T02:16:11;5.38;;;2.95;;
19167;SDS011;9716;53.114;18.040;2022-08-21T02:18:45;7.43;;;3.40;;
19167;SDS011;9716;53.114;18.040;2022-08-21T02:21:14;5.28;;;3.20;;
19167;SDS011;9716;53.114;18.040;2022-08-21T02:23:42;9.85;;;3.38;;
19167;SDS011;9716;53.114;18.040;2022-08-21T02:26:12;7.70;;;3.50;;
19167;SDS011;9716;53.114;18.040;2022-08-21T02:28:41;6.28;;;3.00;;
19167;SDS011;9716;53.114;18.040;2022-08-21T02:31:10;5.63;;;3.30;;
19167;SDS011;9716;53.114;18.040;2022-08-21T02:33:38;11.70;;;3.38;;
19167;SDS011;9716;53.114;18.040;2022-08-21T02:36:08;6.30;;;3.53;;
19167;SDS011;9716;53.114;18.040;2022-08-21T02:38:38;5.45;;;3.05;;
19167;SDS011;9716;53.114;18.040;2022-08-21T02:41:09;13.73;;;4.63;;
19167;SDS011;9716;53.114;18.040;2022-08-21T02:43:41;9.88;;;3.67;;
19167;SDS011;9716;53.114;18.040;2022-08-21T02:46:10;6.00;;;3.50;;
19167;SDS011;9716;53.114;18.040;2022-08-21T02:48:40;5.45;;;3.95;;
19167;SDS011;9716;53.114;18.040;2022-08-21T02:51:10;8.55;;;4.50;;
19167;SDS011;9716;53.114;18.040;2022-08-21T02:53:40;10.43;;;4.43;;
19167;SDS011;9716;53.114;18.040;2022-08-21T02:56:10;7.88;;;4.60;;
19167;SDS011;9716;53.114;18.040;2022-08-21T02:58:42;8.13;;;4.65;;
19167;SDS011;9716;53.114;18.040;2022-08-21T03:01:12;10.35;;;4.15;;
19167;SDS011;9716;53.114;18.040;2022-08-21T03:03:42;9.05;;;4.82;;
19167;SDS011;9716;53.114;18.040;2022-08-21T03:06:13;7.38;;;4.65;;
19167;SDS011;9716;53.114;18.040;2022-08-21T03:08:43;7.90;;;4.70;;
19167;SDS011;9716;53.114;18.040;2022-08-21T03:11:13;8.65;;;4.20;;
19167;SDS011;9716;53.114;18.040;2022-08-21T03:13:43;7.85;;;4.03;;
19167;SDS011;9716;53.114;18.040;2022-08-21T03:16:12;10.40;;;4.07;;
19167;SDS011;9716;53.114;18.040;2022-08-21T03:18:41;6.78;;;4.47;;
19167;SDS011;9716;53.114;18.040;2022-08-21T03:21:09;9.48;;;4.93;;
19167;SDS011;9716;53.114;18.040;2022-08-21T03:23:39;7.00;;;4.85;;
19167;SDS011;9716;53.114;18.040;2022-08-21T03:26:09;12.98;;;5.43;;
19167;SDS011;9716;53.114;18.040;2022-08-21T03:28:38;10.48;;;6.00;;
19167;SDS011;9716;53.114;18.040;2022-08-21T03:31:09;8.82;;;4.70;;
19167;SDS011;9716;53.114;18.040;2022-08-21T03:33:37;9.25;;;5.03;;
19167;SDS011;9716;53.114;18.040;2022-08-21T03:36:07;7.20;;;5.00;;
19167;SDS011;9716;53.114;18.040;2022-08-21T03:38:37;10.25;;;5.35;;
19167;SDS011;9716;53.114;18.040;2022-08-21T03:41:06;8.20;;;4.85;;
19167;SDS011;9716;53.114;18.040;2022-08-21T03:43:35;15.52;;;5.68;;
19167;SDS011;9716;53.114;18.040;2022-08-21T03:46:05;10.40;;;5.38;;
19167;SDS011;9716;53.114;18.040;2022-08-21T03:48:36;6.53;;;4.05;;
19167;SDS011;9716;53.114;18.040;2022-08-21T03:51:05;6.57;;;3.97;;
19167;SDS011;9716;53.114;18.040;2022-08-21T03:53:35;8.93;;;4.65;;
19167;SDS011;9716;53.114;18.040;2022-08-21T03:56:03;7.88;;;4.35;;
19167;SDS011;9716;53.114;18.040;2022-08-21T03:58:33;6.68;;;4.18;;
19167;SDS011;9716;53.114;18.040;2022-08-21T04:01:02;7.22;;;4.78;;
19167;SDS011;9716;53.114;18.040;2022-08-21T04:03:33;9.00;;;4.88;;
19167;SDS011;9716;53.114;18.040;2022-08-21T04:06:05;8.40;;;4.55;;
19167;SDS011;9716;53.114;18.040;2022-08-21T04:08:34;10.93;;;3.97;;
19167;SDS011;9716;53.114;18.040;2022-08-21T04:11:03;6.20;;;4.05;;
19167;SDS011;9716;53.114;18.040;2022-08-21T04:13:33;6.13;;;3.95;;
19167;SDS011;9716;53.114;18.040;2022-08-21T04:16:10;5.57;;;4.00;;
19167;SDS011;9716;53.114;18.040;2022-08-21T04:18:40;7.85;;;4.57;;
19167;SDS011;9716;53.114;18.040;2022-08-21T04:21:09;6.75;;;4.40;;
19167;SDS011;9716;53.114;18.040;2022-08-21T04:23:39;7.20;;;4.28;;
19167;SDS011;9716;53.114;18.040;2022-08-21T04:26:08;6.65;;;3.80;;
19167;SDS011;9716;53.114;18.040;2022-08-21T04:28:37;8.80;;;4.18;;
19167;SDS011;9716;53.114;18.040;2022-08-21T04:31:06;6.82;;;3.85;;
19167;SDS011;9716;53.114;18.040;2022-08-21T04:33:35;7.80;;;4.22;;
19167;SDS011;9716;53.114;18.040;2022-08-21T04:36:05;7.93;;;3.92;;
19167;SDS011;9716;53.114;18.040;2022-08-21T04:38:34;9.68;;;3.72;;
19167;SDS011;9716;53.114;18.040;2022-08-21T04:41:05;8.43;;;4.00;;
19167;SDS011;9716;53.114;18.040;2022-08-21T04:43:34;10.45;;;3.97;;
19167;SDS011;9716;53.114;18.040;2022-08-21T04:46:03;10.88;;;4.43;;
19167;SDS011;9716;53.114;18.040;2022-08-21T04:48:32;5.70;;;3.70;;
19167;SDS011;9716;53.114;18.040;2022-08-21T04:51:02;5.38;;;3.85;;
19167;SDS011;9716;53.114;18.040;2022-08-21T04:53:36;7.07;;;3.88;;
19167;SDS011;9716;53.114;18.040;2022-08-21T04:56:07;6.70;;;3.85;;
19167;SDS011;9716;53.114;18.040;2022-08-21T04:58:39;7.30;;;4.18;;
19167;SDS011;9716;53.114;18.040;2022-08-21T05:01:11;5.65;;;3.90;;
19167;SDS011;9716;53.114;18.040;2022-08-21T05:03:43;6.75;;;4.03;;
19167;SDS011;9716;53.114;18.040;2022-08-21T05:06:14;7.55;;;4.53;;
19167;SDS011;9716;53.114;18.040;2022-08-21T05:08:45;8.43;;;4.63;;
19167;SDS011;9716;53.114;18.040;2022-08-21T05:11:23;7.80;;;4.43;;
19167;SDS011;9716;53.114;18.040;2022-08-21T05:13:52;7.03;;;4.35;;
19167;SDS011;9716;53.114;18.040;2022-08-21T05:16:23;12.07;;;5.07;;
19167;SDS011;9716;53.114;18.040;2022-08-21T05:19:05;8.95;;;4.35;;
19167;SDS011;9716;53.114;18.040;2022-08-21T05:21:38;6.47;;;4.20;;
19167;SDS011;9716;53.114;18.040;2022-08-21T05:24:08;9.02;;;4.60;;
19167;SDS011;9716;53.114;18.040;2022-08-21T05:26:37;9.40;;;4.20;;
19167;SDS011;9716;53.114;18.040;2022-08-21T05:29:12;8.32;;;4.53;;
19167;SDS011;9716;53.114;18.040;2022-08-21T05:31:44;10.38;;;4.00;;
19167;SDS011;9716;53.114;18.040;2022-08-21T05:34:15;8.27;;;4.47;;
19167;SDS011;9716;53.114;18.040;2022-08-21T05:36:48;8.80;;;4.28;;
19167;SDS011;9716;53.114;18.040;2022-08-21T05:39:16;12.52;;;5.53;;
19167;SDS011;9716;53.114;18.040;2022-08-21T05:41:45;11.02;;;5.10;;
19167;SDS011;9716;53.114;18.040;2022-08-21T05:44:14;8.98;;;4.78;;
19167;SDS011;9716;53.114;18.040;2022-08-21T05:46:42;6.20;;;4.38;;
19167;SDS011;9716;53.114;18.040;2022-08-21T05:49:11;8.32;;;4.55;;
19167;SDS011;9716;53.114;18.040;2022-08-21T05:51:40;8.18;;;4.70;;
19167;SDS011;9716;53.114;18.040;2022-08-21T05:54:10;8.25;;;5.50;;
19167;SDS011;9716;53.114;18.040;2022-08-21T05:56:38;9.27;;;4.80;;
19167;SDS011;9716;53.114;18.040;2022-08-21T05:59:11;11.82;;;4.78;;
19167;SDS011;9716;53.114;18.040;2022-08-21T06:01:39;10.00;;;4.95;;
19167;SDS011;9716;53.114;18.040;2022-08-21T06:04:08;12.25;;;4.93;;
19167;SDS011;9716;53.114;18.040;2022-08-21T06:06:37;7.78;;;5.05;;
19167;SDS011;9716;53.114;18.040;2022-08-21T06:09:05;11.05;;;5.80;;
19167;SDS011;9716;53.114;18.040;2022-08-21T06:11:35;9.68;;;5.07;;
19167;SDS011;9716;53.114;18.040;2022-08-21T06:14:04;10.10;;;4.65;;
19167;SDS011;9716;53.114;18.040;2022-08-21T06:16:33;9.43;;;4.65;;
19167;SDS011;9716;53.114;18.040;2022-08-21T06:19:01;7.57;;;4.53;;
19167;SDS011;9716;53.114;18.040;2022-08-21T06:21:30;9.88;;;4.68;;
19167;SDS011;9716;53.114;18.040;2022-08-21T06:23:59;11.52;;;4.53;;
19167;SDS011;9716;53.114;18.040;2022-08-21T06:26:27;8.50;;;5.18;;
19167;SDS011;9716;53.114;18.040;2022-08-21T06:28:57;8.00;;;4.55;;
19167;SDS011;9716;53.114;18.040;2022-08-21T06:31:26;7.05;;;4.05;;
19167;SDS011;9716;53.114;18.040;2022-08-21T06:33:56;5.57;;;3.95;;
19167;SDS011;9716;53.114;18.040;2022-08-21T06:36:25;9.63;;;4.88;;
19167;SDS011;9716;53.114;18.040;2022-08-21T06:38:53;6.47;;;3.85;;
19167;SDS011;9716;53.114;18.040;2022-08-21T06:41:23;9.77;;;3.80;;
19167;SDS011;9716;53.114;18.040;2022-08-21T06:43:54;8.02;;;4.38;;
19167;SDS011;9716;53.114;18.040;2022-08-21T06:46:26;3.60;;;3.15;;
19167;SDS011;9716;53.114;18.040;2022-08-21T06:48:56;8.05;;;3.65;;
19167;SDS011;9716;53.114;18.040;2022-08-21T06:51:25;6.63;;;3.28;;
19167;SDS011;9716;53.114;18.040;2022-08-21T06:53:55;5.25;;;3.42;;
19167;SDS011;9716;53.114;18.040;2022-08-21T06:56:25;5.07;;;3.03;;
19167;SDS011;9716;53.114;18.040;2022-08-21T06:58:53;9.15;;;3.28;;
19167;SDS011;9716;53.114;18.040;2022-08-21T07:01:23;3.83;;;2.65;;
19167;SDS011;9716;53.114;18.040;2022-08-21T07:03:54;4.00;;;2.70;;
19167;SDS011;9716;53.114;18.040;2022-08-21T07:06:23;5.45;;;2.92;;
19167;SDS011;9716;53.114;18.040;2022-08-21T07:08:51;5.55;;;2.85;;
19167;SDS011;9716;53.114;18.040;2022-08-21T07:11:24;3.83;;;2.30;;
19167;SDS011;9716;53.114;18.040;2022-08-21T07:13:53;3.35;;;2.60;;
19167;SDS011;9716;53.114;18.040;2022-08-21T07:16:23;3.97;;;2.88;;
19167;SDS011;9716;53.114;18.040;2022-08-21T07:18:53;3.15;;;2.30;;
19167;SDS011;9716;53.114;18.040;2022-08-21T07:21:21;4.68;;;2.10;;
19167;SDS011;9716;53.114;18.040;2022-08-21T07:23:51;5.68;;;2.85;;
19167;SDS011;9716;53.114;18.040;2022-08-21T07:26:21;3.00;;;2.38;;
19167;SDS011;9716;53.114;18.040;2022-08-21T07:28:52;5.38;;;2.60;;
19167;SDS011;9716;53.114;18.040;2022-08-21T07:31:23;2.90;;;2.38;;
19167;SDS011;9716;53.114;18.040;2022-08-21T07:33:54;3.67;;;2.40;;
19167;SDS011;9716;53.114;18.040;2022-08-21T07:36:23;3.53;;;2.25;;
19167;SDS011;9716;53.114;18.040;2022-08-21T07:38:52;3.40;;;1.88;;
19167;SDS011;9716;53.114;18.040;2022-08-21T07:41:21;2.58;;;2.00;;
19167;SDS011;9716;53.114;18.040;2022-08-21T07:43:52;4.50;;;2.53;;
19167;SDS011;9716;53.114;18.040;2022-08-21T07:46:21;4.35;;;2.58;;
19167;SDS011;9716;53.114;18.040;2022-08-21T07:48:49;2.78;;;1.80;;
19167;SDS011;9716;53.114;18.040;2022-08-21T07:51:24;3.70;;;2.45;;
19167;SDS011;9716;53.114;18.040;2022-08-21T07:53:55;2.10;;;1.88;;
19167;SDS011;9716;53.114;18.040;2022-08-21T07:56:25;4.05;;;2.42;;
19167;SDS011;9716;53.114;18.040;2022-08-21T07:58:54;2.63;;;2.13;;
19167;SDS011;9716;53.114;18.040;2022-08-21T08:01:24;4.47;;;2.00;;
19167;SDS011;9716;53.114;18.040;2022-08-21T08:03:53;6.40;;;2.15;;
19167;SDS011;9716;53.114;18.040;2022-08-21T08:06:24;3.20;;;1.70;;
19167;SDS011;9716;53.114;18.040;2022-08-21T08:08:52;2.25;;;1.17;;
19167;SDS011;9716;53.114;18.040;2022-08-21T08:11:21;5.18;;;1.95;;
19167;SDS011;9716;53.114;18.040;2022-08-21T08:13:51;2.15;;;1.58;;
19167;SDS011;9716;53.114;18.040;2022-08-21T08:16:20;1.77;;;1.65;;
19167;SDS011;9716;53.114;18.040;2022-08-21T08:18:49;2.92;;;1.40;;
19167;SDS011;9716;53.114;18.040;2022-08-21T08:21:18;2.17;;;1.60;;
19167;SDS011;9716;53.114;18.040;2022-08-21T08:23:48;2.00;;;1.55;;
19167;SDS011;9716;53.114;18.040;2022-08-21T08:26:17;2.60;;;1.50;;
19167;SDS011;9716;53.114;18.040;2022-08-21T08:28:46;2.72;;;1.30;;
19167;SDS011;9716;53.114;18.040;2022-08-21T08:31:14;1.38;;;1.27;;
19167;SDS011;9716;53.114;18.040;2022-08-21T08:33:43;1.58;;;1.35;;
19167;SDS011;9716;53.114;18.040;2022-08-21T08:36:12;1.85;;;1.40;;
19167;SDS011;9716;53.114;18.040;2022-08-21T08:38:43;2.90;;;1.42;;
19167;SDS011;9716;53.114;18.040;2022-08-21T08:41:14;1.50;;;1.30;;
19167;SDS011;9716;53.114;18.040;2022-08-21T08:43:48;2.95;;;1.45;;
19167;SDS011;9716;53.114;18.040;2022-08-21T08:46:19;2.03;;;1.58;;
19167;SDS011;9716;53.114;18.040;2022-08-21T08:48:55;1.90;;;1.52;;
19167;SDS011;9716;53.114;18.040;2022-08-21T08:51:30;2.50;;;1.67;;
19167;SDS011;9716;53.114;18.040;2022-08-21T08:54:07;2.50;;;1.70;;
19167;SDS011;9716;53.114;18.040;2022-08-21T08:56:41;1.83;;;1.58;;
19167;SDS011;9716;53.114;18.040;2022-08-21T08:59:13;2.67;;;1.50;;
19167;SDS011;9716;53.114;18.040;2022-08-21T09:01:44;2.30;;;1.48;;
19167;SDS011;9716;53.114;18.040;2022-08-21T09:04:13;2.90;;;2.00;;
19167;SDS011;9716;53.114;18.040;2022-08-21T09:06:53;2.55;;;1.35;;
19167;SDS011;9716;53.114;18.040;2022-08-21T09:09:31;1.77;;;1.38;;
19167;SDS011;9716;53.114;18.040;2022-08-21T09:12:10;1.75;;;1.25;;
19167;SDS011;9716;53.114;18.040;2022-08-21T09:14:50;1.85;;;1.50;;
19167;SDS011;9716;53.114;18.040;2022-08-21T09:17:34;2.20;;;1.70;;
19167;SDS011;9716;53.114;18.040;2022-08-21T09:20:14;2.17;;;1.55;;
19167;SDS011;9716;53.114;18.040;2022-08-21T09:22:57;3.90;;;2.20;;
19167;SDS011;9716;53.114;18.040;2022-08-21T09:25:33;2.30;;;1.90;;
19167;SDS011;9716;53.114;18.040;2022-08-21T09:28:10;2.85;;;1.48;;
19167;SDS011;9716;53.114;18.040;2022-08-21T09:30:41;1.60;;;1.50;;
19167;SDS011;9716;53.114;18.040;2022-08-21T09:33:11;1.48;;;1.38;;
19167;SDS011;9716;53.114;18.040;2022-08-21T09:35:50;1.95;;;1.73;;
19167;SDS011;9716;53.114;18.040;2022-08-21T09:38:24;2.45;;;1.55;;
19167;SDS011;9716;53.114;18.040;2022-08-21T09:40:57;3.90;;;1.67;;
19167;SDS011;9716;53.114;18.040;2022-08-21T09:43:28;1.52;;;1.42;;
19167;SDS011;9716;53.114;18.040;2022-08-21T09:46:06;2.55;;;1.90;;
19167;SDS011;9716;53.114;18.040;2022-08-21T09:48:42;2.45;;;1.95;;
19167;SDS011;9716;53.114;18.040;2022-08-21T09:51:15;2.05;;;1.65;;
19167;SDS011;9716;53.114;18.040;2022-08-21T09:53:45;4.80;;;1.73;;
19167;SDS011;9716;53.114;18.040;2022-08-21T09:56:19;4.43;;;2.10;;
19167;SDS011;9716;53.114;18.040;2022-08-21T09:59:16;4.55;;;2.20;;
19167;SDS011;9716;53.114;18.040;2022-08-21T10:01:49;4.43;;;1.67;;
19167;SDS011;9716;53.114;18.040;2022-08-21T10:04:19;4.25;;;2.40;;
19167;SDS011;9716;53.114;18.040;2022-08-21T10:06:50;3.78;;;1.98;;
19167;SDS011;9716;53.114;18.040;2022-08-21T10:09:23;3.35;;;2.17;;
19167;SDS011;9716;53.114;18.040;2022-08-21T10:11:57;1.65;;;1.48;;
19167;SDS011;9716;53.114;18.040;2022-08-21T10:14:42;2.38;;;1.95;;
19167;SDS011;9716;53.114;18.040;2022-08-21T10:17:20;3.40;;;1.67;;
19167;SDS011;9716;53.114;18.040;2022-08-21T10:19:56;4.40;;;1.65;;
19167;SDS011;9716;53.114;18.040;2022-08-21T10:22:34;6.40;;;1.90;;
19167;SDS011;9716;53.114;18.040;2022-08-21T10:25:11;2.30;;;1.77;;
19167;SDS011;9716;53.114;18.040;2022-08-21T10:27:52;2.10;;;1.70;;
19167;SDS011;9716;53.114;18.040;2022-08-21T10:30:30;2.65;;;1.55;;
19167;SDS011;9716;53.114;18.040;2022-08-21T10:33:11;3.10;;;2.10;;
19167;SDS011;9716;53.114;18.040;2022-08-21T10:35:51;2.60;;;1.90;;
19167;SDS011;9716;53.114;18.040;2022-08-21T10:38:46;3.65;;;1.90;;
19167;SDS011;9716;53.114;18.040;2022-08-21T10:41:52;2.25;;;1.83;;
19167;SDS011;9716;53.114;18.040;2022-08-21T10:44:44;2.80;;;2.00;;
19167;SDS011;9716;53.114;18.040;2022-08-21T10:47:30;7.50;;;1.80;;
19167;SDS011;9716;53.114;18.040;2022-08-21T10:50:05;2.92;;;2.08;;
19167;SDS011;9716;53.114;18.040;2022-08-21T10:55:40;2.65;;;1.85;;
19167;SDS011;9716;53.114;18.040;2022-08-21T10:58:13;2.33;;;2.00;;
19167;SDS011;9716;53.114;18.040;2022-08-21T11:00:53;2.20;;;1.60;;
19167;SDS011;9716;53.114;18.040;2022-08-21T11:03:29;4.55;;;1.90;;
19167;SDS011;9716;53.114;18.040;2022-08-21T11:06:02;2.47;;;1.60;;
19167;SDS011;9716;53.114;18.040;2022-08-21T11:08:37;4.05;;;1.90;;
19167;SDS011;9716;53.114;18.040;2022-08-21T11:11:10;2.97;;;1.92;;
19167;SDS011;9716;53.114;18.040;2022-08-21T11:13:49;1.90;;;1.80;;
19167;SDS011;9716;53.114;18.040;2022-08-21T11:16:22;3.03;;;1.88;;
19167;SDS011;9716;53.114;18.040;2022-08-21T11:18:57;1.85;;;1.55;;
19167;SDS011;9716;53.114;18.040;2022-08-21T11:21:35;3.88;;;2.08;;
19167;SDS011;9716;53.114;18.040;2022-08-21T11:24:14;2.83;;;1.85;;
19167;SDS011;9716;53.114;18.040;2022-08-21T11:26:51;2.03;;;1.55;;
19167;SDS011;9716;53.114;18.040;2022-08-21T11:29:27;2.05;;;1.75;;
19167;SDS011;9716;53.114;18.040;2022-08-21T11:32:05;3.85;;;1.88;;
19167;SDS011;9716;53.114;18.040;2022-08-21T11:34:54;2.00;;;1.60;;
19167;SDS011;9716;53.114;18.040;2022-08-21T11:37:35;2.10;;;1.88;;
19167;SDS011;9716;53.114;18.040;2022-08-21T11:40:19;3.55;;;1.33;;
19167;SDS011;9716;53.114;18.040;2022-08-21T11:43:09;2.28;;;1.70;;
19167;SDS011;9716;53.114;18.040;2022-08-21T11:45:45;2.65;;;1.92;;
19167;SDS011;9716;53.114;18.040;2022-08-21T11:48:22;2.53;;;1.48;;
19167;SDS011;9716;53.114;18.040;2022-08-21T11:51:07;1.83;;;1.42;;
19167;SDS011;9716;53.114;18.040;2022-08-21T11:53:42;2.20;;;1.45;;
19167;SDS011;9716;53.114;18.040;2022-08-21T11:56:21;1.50;;;1.40;;
19167;SDS011;9716;53.114;18.040;2022-08-21T11:58:54;2.75;;;1.58;;
19167;SDS011;9716;53.114;18.040;2022-08-21T12:01:27;1.65;;;1.42;;
19167;SDS011;9716;53.114;18.040;2022-08-21T12:04:01;1.23;;;0.95;;
19167;SDS011;9716;53.114;18.040;2022-08-21T12:06:34;2.75;;;1.50;;
19167;SDS011;9716;53.114;18.040;2022-08-21T12:09:05;2.13;;;1.65;;
19167;SDS011;9716;53.114;18.040;2022-08-21T12:11:45;1.27;;;1.17;;
19167;SDS011;9716;53.114;18.040;2022-08-21T12:14:16;5.68;;;1.52;;
19167;SDS011;9716;53.114;18.040;2022-08-21T12:16:47;4.05;;;1.25;;
19167;SDS011;9716;53.114;18.040;2022-08-21T12:19:28;2.03;;;1.17;;
19167;SDS011;9716;53.114;18.040;2022-08-21T12:22:07;1.95;;;1.50;;
19167;SDS011;9716;53.114;18.040;2022-08-21T12:24:37;1.95;;;1.45;;
19167;SDS011;9716;53.114;18.040;2022-08-21T12:27:19;0.93;;;0.82;;
19167;SDS011;9716;53.114;18.040;2022-08-21T12:29:54;1.98;;;1.25;;
19167;SDS011;9716;53.114;18.040;2022-08-21T12:32:26;2.85;;;1.40;;
19167;SDS011;9716;53.114;18.040;2022-08-21T12:34:58;3.25;;;1.38;;
19167;SDS011;9716;53.114;18.040;2022-08-21T12:37:43;1.63;;;1.20;;
19167;SDS011;9716;53.114;18.040;2022-08-21T12:40:18;2.17;;;1.20;;
19167;SDS011;9716;53.114;18.040;2022-08-21T12:42:51;2.38;;;1.30;;
19167;SDS011;9716;53.114;18.040;2022-08-21T12:45:27;1.90;;;1.17;;
19167;SDS011;9716;53.114;18.040;2022-08-21T12:47:58;2.05;;;1.33;;
19167;SDS011;9716;53.114;18.040;2022-08-21T12:50:32;1.90;;;1.40;;
19167;SDS011;9716;53.114;18.040;2022-08-21T12:53:07;1.08;;;0.93;;
19167;SDS011;9716;53.114;18.040;2022-08-21T12:55:47;0.88;;;0.75;;
19167;SDS011;9716;53.114;18.040;2022-08-21T12:58:19;3.50;;;1.75;;
19167;SDS011;9716;53.114;18.040;2022-08-21T13:00:49;2.88;;;1.30;;
19167;SDS011;9716;53.114;18.040;2022-08-21T13:03:19;2.25;;;1.38;;
19167;SDS011;9716;53.114;18.040;2022-08-21T13:05:50;0.90;;;0.90;;
19167;SDS011;9716;53.114;18.040;2022-08-21T13:08:21;1.80;;;1.00;;
19167;SDS011;9716;53.114;18.040;2022-08-21T13:10:56;1.08;;;1.00;;
19167;SDS011;9716;53.114;18.040;2022-08-21T13:13:41;1.27;;;1.17;;
19167;SDS011;9716;53.114;18.040;2022-08-21T13:16:18;1.17;;;1.02;;
19167;SDS011;9716;53.114;18.040;2022-08-21T13:18:52;1.80;;;1.13;;
19167;SDS011;9716;53.114;18.040;2022-08-21T13:21:26;1.52;;;1.20;;
19167;SDS011;9716;53.114;18.040;2022-08-21T13:24:10;1.35;;;1.08;;
19167;SDS011;9716;53.114;18.040;2022-08-21T13:27:03;2.55;;;1.35;;
19167;SDS011;9716;53.114;18.040;2022-08-21T13:29:42;5.70;;;1.38;;
19167;SDS011;9716;53.114;18.040;2022-08-21T13:32:20;3.40;;;1.40;;
19167;SDS011;9716;53.114;18.040;2022-08-21T13:34:59;2.22;;;1.23;;
19167;SDS011;9716;53.114;18.040;2022-08-21T13:37:35;1.50;;;1.13;;
19167;SDS011;9716;53.114;18.040;2022-08-21T13:40:09;1.15;;;1.00;;
19167;SDS011;9716;53.114;18.040;2022-08-21T13:42:42;4.97;;;1.40;;
19167;SDS011;9716;53.114;18.040;2022-08-21T13:45:17;1.70;;;1.23;;
19167;SDS011;9716;53.114;18.040;2022-08-21T13:47:50;2.05;;;1.63;;
19167;SDS011;9716;53.114;18.040;2022-08-21T13:50:21;2.20;;;1.13;;
19167;SDS011;9716;53.114;18.040;2022-08-21T13:52:55;1.88;;;1.30;;
19167;SDS011;9716;53.114;18.040;2022-08-21T13:55:35;1.17;;;0.98;;
19167;SDS011;9716;53.114;18.040;2022-08-21T13:58:05;1.23;;;1.13;;
19167;SDS011;9716;53.114;18.040;2022-08-21T14:00:35;1.25;;;1.15;;
19167;SDS011;9716;53.114;18.040;2022-08-21T14:03:13;1.25;;;1.15;;
19167;SDS011;9716;53.114;18.040;2022-08-21T14:05:55;2.90;;;1.38;;
19167;SDS011;9716;53.114;18.040;2022-08-21T14:08:27;1.90;;;1.08;;
19167;SDS011;9716;53.114;18.040;2022-08-21T14:11:02;1.25;;;1.15;;
19167;SDS011;9716;53.114;18.040;2022-08-21T14:13:36;0.98;;;0.98;;
19167;SDS011;9716;53.114;18.040;2022-08-21T14:16:15;1.25;;;0.75;;
19167;SDS011;9716;53.114;18.040;2022-08-21T14:18:48;0.80;;;0.80;;
19167;SDS011;9716;53.114;18.040;2022-08-21T14:21:24;1.02;;;0.93;;
19167;SDS011;9716;53.114;18.040;2022-08-21T14:24:05;0.90;;;0.90;;
19167;SDS011;9716;53.114;18.040;2022-08-21T14:26:42;1.88;;;0.98;;
19167;SDS011;9716;53.114;18.040;2022-08-21T14:29:14;1.38;;;1.08;;
19167;SDS011;9716;53.114;18.040;2022-08-21T14:31:48;0.80;;;0.80;;
19167;SDS011;9716;53.114;18.040;2022-08-21T14:34:19;2.60;;;1.20;;
19167;SDS011;9716;53.114;18.040;2022-08-21T14:36:49;1.42;;;1.00;;
19167;SDS011;9716;53.114;18.040;2022-08-21T14:39:17;1.13;;;1.02;;
19167;SDS011;9716;53.114;18.040;2022-08-21T14:41:48;1.42;;;1.20;;
19167;SDS011;9716;53.114;18.040;2022-08-21T14:44:17;1.02;;;0.93;;
19167;SDS011;9716;53.114;18.040;2022-08-21T14:46:46;1.35;;;1.08;;
19167;SDS011;9716;53.114;18.040;2022-08-21T14:49:26;1.30;;;1.05;;
19167;SDS011;9716;53.114;18.040;2022-08-21T14:51:57;1.48;;;1.08;;
19167;SDS011;9716;53.114;18.040;2022-08-21T14:54:27;1.23;;;0.98;;
19167;SDS011;9716;53.114;18.040;2022-08-21T14:57:01;1.17;;;1.08;;
19167;SDS011;9716;53.114;18.040;2022-08-21T14:59:33;1.42;;;1.15;;
19167;SDS011;9716;53.114;18.040;2022-08-21T15:02:02;1.33;;;0.90;;
19167;SDS011;9716;53.114;18.040;2022-08-21T15:04:32;2.03;;;1.00;;
19167;SDS011;9716;53.114;18.040;2022-08-21T15:07:02;1.27;;;1.17;;
19167;SDS011;9716;53.114;18.040;2022-08-21T15:09:32;1.00;;;0.95;;
19167;SDS011;9716;53.114;18.040;2022-08-21T15:12:02;1.40;;;1.20;;
19167;SDS011;9716;53.114;18.040;2022-08-21T15:14:33;1.33;;;1.00;;
19167;SDS011;9716;53.114;18.040;2022-08-21T15:17:04;2.00;;;1.20;;
19167;SDS011;9716;53.114;18.040;2022-08-21T15:19:33;2.05;;;1.42;;